sensor_id;sensor_type;location;lat;lon;timestamp;pressure;altitude;pressure_sealevel;temperature;humidity
46690;BME280;32423;45.398;10.874;2023-07-29T00:02:42;100503.97;;;24.16;62.88
46690;BME280;32423;45.398;10.874;2023-07-29T00:05:34;100513.06;;;24.20;63.15
46690;BME280;32423;45.398;10.874;2023-07-29T00:08:27;100509.78;;;24.32;62.62
46690;BME280;32423;45.398;10.874;2023-07-29T00:11:21;100502.81;;;24.51;61.90
46690;BME280;32423;45.398;10.874;2023-07-29T00:14:16;100497.75;;;24.42;61.78
46690;BME280;32423;45.398;10.874;2023-07-29T00:17:11;100486.19;;;24.44;61.46
46690;BME280;32423;45.398;10.874;2023-07-29T00:20:03;100482.47;;;24.23;62.01
46690;BME280;32423;45.398;10.874;2023-07-29T00:22:55;100479.63;;;24.31;61.67
46690;BME280;32423;45.398;10.874;2023-07-29T00:25:49;100481.47;;;24.41;61.58
46690;BME280;32423;45.398;10.874;2023-07-29T00:28:41;100475.81;;;24.51;62.05
46690;BME280;32423;45.398;10.874;2023-07-29T00:31:38;100475.88;;;24.75;61.01
46690;BME280;32423;45.398;10.874;2023-07-29T00:34:28;100482.03;;;24.59;60.81
46690;BME280;32423;45.398;10.874;2023-07-29T00:37:21;100480.84;;;24.60;61.24
46690;BME280;32423;45.398;10.874;2023-07-29T00:40:23;100486.56;;;24.80;60.89
46690;BME280;32423;45.398;10.874;2023-07-29T00:43:15;100489.69;;;24.51;59.68
46690;BME280;32423;45.398;10.874;2023-07-29T00:46:07;100486.75;;;24.32;60.27
46690;BME280;32423;45.398;10.874;2023-07-29T00:49:00;100487.00;;;24.07;60.86
46690;BME280;32423;45.398;10.874;2023-07-29T00:51:54;100490.13;;;24.12;61.33
46690;BME280;32423;45.398;10.874;2023-07-29T00:54:49;100482.13;;;24.14;60.88
46690;BME280;32423;45.398;10.874;2023-07-29T00:57:44;100485.47;;;23.99;61.30
46690;BME280;32423;45.398;10.874;2023-07-29T01:00:38;100491.72;;;24.10;61.52
46690;BME280;32423;45.398;10.874;2023-07-29T01:03:30;100485.13;;;23.93;63.03
46690;BME280;32423;45.398;10.874;2023-07-29T01:09:55;100501.13;;;23.78;64.06
46690;BME280;32423;45.398;10.874;2023-07-29T01:12:55;100505.19;;;23.70;64.09
46690;BME280;32423;45.398;10.874;2023-07-29T01:15:58;100508.44;;;23.62;64.47
46690;BME280;32423;45.398;10.874;2023-07-29T01:18:56;100515.91;;;23.68;63.87
46690;BME280;32423;45.398;10.874;2023-07-29T01:21:54;100505.63;;;23.65;64.13
46690;BME280;32423;45.398;10.874;2023-07-29T01:24:49;100507.66;;;23.61;64.22
46690;BME280;32423;45.398;10.874;2023-07-29T01:27:41;100500.13;;;23.58;64.34
46690;BME280;32423;45.398;10.874;2023-07-29T01:30:40;100499.41;;;23.43;65.76
46690;BME280;32423;45.398;10.874;2023-07-29T01:33:45;100504.47;;;23.59;63.81
46690;BME280;32423;45.398;10.874;2023-07-29T01:36:42;100503.09;;;23.81;62.66
46690;BME280;32423;45.398;10.874;2023-07-29T01:39:40;100510.16;;;23.90;61.70
46690;BME280;32423;45.398;10.874;2023-07-29T01:42:35;100511.31;;;23.96;61.62
46690;BME280;32423;45.398;10.874;2023-07-29T01:45:29;100507.69;;;24.02;61.50
46690;BME280;32423;45.398;10.874;2023-07-29T01:48:24;100496.66;;;23.92;61.78
46690;BME280;32423;45.398;10.874;2023-07-29T01:51:19;100494.38;;;23.79;62.58
46690;BME280;32423;45.398;10.874;2023-07-29T01:54:14;100494.34;;;23.86;62.39
46690;BME280;32423;45.398;10.874;2023-07-29T01:57:06;100501.38;;;23.50;63.74
46690;BME280;32423;45.398;10.874;2023-07-29T02:00:00;100503.44;;;23.35;64.23
46690;BME280;32423;45.398;10.874;2023-07-29T02:03:04;100494.75;;;23.26;64.37
46690;BME280;32423;45.398;10.874;2023-07-29T02:05:59;100493.84;;;23.47;63.84
46690;BME280;32423;45.398;10.874;2023-07-29T02:08:53;100494.66;;;23.44;63.94
46690;BME280;32423;45.398;10.874;2023-07-29T02:11:48;100496.97;;;23.53;63.59
46690;BME280;32423;45.398;10.874;2023-07-29T02:14:40;100499.41;;;23.47;63.25
46690;BME280;32423;45.398;10.874;2023-07-29T02:17:32;100495.84;;;23.43;62.91
46690;BME280;32423;45.398;10.874;2023-07-29T02:20:27;100492.34;;;23.32;63.12
46690;BME280;32423;45.398;10.874;2023-07-29T02:23:21;100491.78;;;22.99;64.39
46690;BME280;32423;45.398;10.874;2023-07-29T02:26:16;100498.13;;;23.00;64.75
46690;BME280;32423;45.398;10.874;2023-07-29T02:29:09;100498.78;;;23.18;64.91
46690;BME280;32423;45.398;10.874;2023-07-29T02:32:02;100497.97;;;23.25;64.18
46690;BME280;32423;45.398;10.874;2023-07-29T02:34:56;100493.16;;;23.29;64.40
46690;BME280;32423;45.398;10.874;2023-07-29T02:37:51;100484.47;;;23.23;64.16
46690;BME280;32423;45.398;10.874;2023-07-29T02:40:45;100492.88;;;23.13;64.09
46690;BME280;32423;45.398;10.874;2023-07-29T02:43:38;100502.56;;;23.42;65.17
46690;BME280;32423;45.398;10.874;2023-07-29T02:46:30;100511.47;;;23.19;64.12
46690;BME280;32423;45.398;10.874;2023-07-29T02:49:25;100507.50;;;23.17;63.75
46690;BME280;32423;45.398;10.874;2023-07-29T02:52:17;100502.47;;;22.97;64.95
46690;BME280;32423;45.398;10.874;2023-07-29T02:55:11;100504.88;;;22.92;65.66
46690;BME280;32423;45.398;10.874;2023-07-29T02:58:06;100508.38;;;23.03;65.36
46690;BME280;32423;45.398;10.874;2023-07-29T03:01:09;100502.50;;;22.94;65.09
46690;BME280;32423;45.398;10.874;2023-07-29T03:04:04;100500.50;;;22.91;65.81
46690;BME280;32423;45.398;10.874;2023-07-29T03:06:58;100500.59;;;22.80;65.47
46690;BME280;32423;45.398;10.874;2023-07-29T03:09:47;100511.69;;;22.73;65.99
46690;BME280;32423;45.398;10.874;2023-07-29T03:12:42;100514.81;;;22.89;65.49
46690;BME280;32423;45.398;10.874;2023-07-29T03:15:36;100514.00;;;22.89;65.04
46690;BME280;32423;45.398;10.874;2023-07-29T03:18:33;100503.72;;;22.86;65.66
46690;BME280;32423;45.398;10.874;2023-07-29T03:21:28;100510.75;;;23.05;65.70
46690;BME280;32423;45.398;10.874;2023-07-29T03:24:20;100510.56;;;23.36;64.58
46690;BME280;32423;45.398;10.874;2023-07-29T03:27:15;100514.31;;;23.67;63.97
46690;BME280;32423;45.398;10.874;2023-07-29T03:30:05;100532.38;;;23.90;63.20
46690;BME280;32423;45.398;10.874;2023-07-29T03:32:53;100518.75;;;24.06;62.26
46690;BME280;32423;45.398;10.874;2023-07-29T03:35:47;100518.56;;;24.27;61.36
46690;BME280;32423;45.398;10.874;2023-07-29T03:38:42;100516.09;;;24.36;60.77
46690;BME280;32423;45.398;10.874;2023-07-29T03:41:36;100505.31;;;24.38;60.63
46690;BME280;32423;45.398;10.874;2023-07-29T03:44:28;100512.84;;;24.41;60.37
46690;BME280;32423;45.398;10.874;2023-07-29T03:47:20;100510.44;;;24.43;60.20
46690;BME280;32423;45.398;10.874;2023-07-29T03:50:12;100506.06;;;24.46;60.02
46690;BME280;32423;45.398;10.874;2023-07-29T03:53:07;100506.00;;;24.49;60.04
46690;BME280;32423;45.398;10.874;2023-07-29T03:56:02;100519.50;;;24.51;59.66
46690;BME280;32423;45.398;10.874;2023-07-29T03:59:04;100527.00;;;24.54;59.52
46690;BME280;32423;45.398;10.874;2023-07-29T04:01:59;100530.22;;;24.52;59.68
46690;BME280;32423;45.398;10.874;2023-07-29T04:04:53;100537.72;;;24.55;59.30
46690;BME280;32423;45.398;10.874;2023-07-29T04:07:48;100538.13;;;24.54;59.40
46690;BME280;32423;45.398;10.874;2023-07-29T04:10:42;100544.47;;;24.54;59.29
46690;BME280;32423;45.398;10.874;2023-07-29T04:13:34;100548.00;;;24.58;59.37
46690;BME280;32423;45.398;10.874;2023-07-29T04:16:26;100548.78;;;24.59;59.04
46690;BME280;32423;45.398;10.874;2023-07-29T04:19:16;100547.22;;;24.58;59.16
46690;BME280;32423;45.398;10.874;2023-07-29T04:22:09;100551.94;;;24.61;59.19
46690;BME280;32423;45.398;10.874;2023-07-29T04:25:07;100548.25;;;23.89;60.29
46690;BME280;32423;45.398;10.874;2023-07-29T04:28:02;100542.22;;;23.42;61.75
46690;BME280;32423;45.398;10.874;2023-07-29T04:30:57;100555.81;;;23.26;64.14
46690;BME280;32423;45.398;10.874;2023-07-29T04:33:51;100562.16;;;23.27;62.88
46690;BME280;32423;45.398;10.874;2023-07-29T04:36:46;100558.78;;;23.64;62.77
46690;BME280;32423;45.398;10.874;2023-07-29T04:39:41;100560.91;;;23.94;61.57
46690;BME280;32423;45.398;10.874;2023-07-29T04:42:30;100556.41;;;24.10;60.93
46690;BME280;32423;45.398;10.874;2023-07-29T04:45:27;100544.09;;;24.11;60.66
46690;BME280;32423;45.398;10.874;2023-07-29T04:48:23;100541.78;;;24.03;61.00
46690;BME280;32423;45.398;10.874;2023-07-29T04:51:17;100544.94;;;24.05;60.88
46690;BME280;32423;45.398;10.874;2023-07-29T04:54:12;100548.81;;;24.18;60.93
46690;BME280;32423;45.398;10.874;2023-07-29T04:57:06;100553.47;;;24.32;60.36
46690;BME280;32423;45.398;10.874;2023-07-29T05:00:01;100559.72;;;24.39;60.39
46690;BME280;32423;45.398;10.874;2023-07-29T05:02:57;100548.66;;;24.36;60.20
46690;BME280;32423;45.398;10.874;2023-07-29T05:05:52;100559.38;;;24.34;60.05
46690;BME280;32423;45.398;10.874;2023-07-29T05:08:47;100570.00;;;24.46;59.89
46690;BME280;32423;45.398;10.874;2023-07-29T05:11:41;100574.69;;;24.52;59.66
46690;BME280;32423;45.398;10.874;2023-07-29T05:14:36;100583.41;;;24.54;59.64
46690;BME280;32423;45.398;10.874;2023-07-29T05:17:31;100584.56;;;24.57;59.56
46690;BME280;32423;45.398;10.874;2023-07-29T05:20:23;100577.38;;;24.59;59.73
46690;BME280;32423;45.398;10.874;2023-07-29T05:23:18;100577.13;;;24.47;60.70
46690;BME280;32423;45.398;10.874;2023-07-29T05:26:10;100581.22;;;24.35;60.92
46690;BME280;32423;45.398;10.874;2023-07-29T05:29:04;100580.63;;;24.54;60.22
46690;BME280;32423;45.398;10.874;2023-07-29T05:31:54;100580.97;;;24.60;60.14
46690;BME280;32423;45.398;10.874;2023-07-29T05:34:46;100588.06;;;24.64;60.01
46690;BME280;32423;45.398;10.874;2023-07-29T05:37:41;100592.41;;;24.65;59.85
46690;BME280;32423;45.398;10.874;2023-07-29T05:40:35;100579.22;;;24.36;61.22
46690;BME280;32423;45.398;10.874;2023-07-29T05:43:30;100581.75;;;24.19;61.97
46690;BME280;32423;45.398;10.874;2023-07-29T05:46:22;100593.28;;;24.18;62.43
46690;BME280;32423;45.398;10.874;2023-07-29T05:49:17;100589.25;;;24.26;63.01
46690;BME280;32423;45.398;10.874;2023-07-29T05:52:12;100567.06;;;24.19;62.90
46690;BME280;32423;45.398;10.874;2023-07-29T05:55:04;100567.31;;;24.35;62.43
46690;BME280;32423;45.398;10.874;2023-07-29T05:57:59;100578.41;;;24.39;62.00
46690;BME280;32423;45.398;10.874;2023-07-29T06:00:53;100574.88;;;24.35;62.37
46690;BME280;32423;45.398;10.874;2023-07-29T06:03:48;100573.22;;;24.41;61.57
46690;BME280;32423;45.398;10.874;2023-07-29T06:06:42;100575.97;;;24.44;61.64
46690;BME280;32423;45.398;10.874;2023-07-29T06:09:37;100580.25;;;24.52;61.71
46690;BME280;32423;45.398;10.874;2023-07-29T06:12:31;100579.38;;;24.59;61.90
46690;BME280;32423;45.398;10.874;2023-07-29T06:15:26;100578.50;;;24.65;61.25
46690;BME280;32423;45.398;10.874;2023-07-29T06:18:18;100586.84;;;24.65;60.73
46690;BME280;32423;45.398;10.874;2023-07-29T06:21:12;100594.75;;;24.70;61.13
46690;BME280;32423;45.398;10.874;2023-07-29T06:24:09;100593.44;;;24.82;61.28
46690;BME280;32423;45.398;10.874;2023-07-29T06:27:03;100605.22;;;24.97;60.40
46690;BME280;32423;45.398;10.874;2023-07-29T06:29:58;100601.13;;;25.05;60.05
46690;BME280;32423;45.398;10.874;2023-07-29T06:32:52;100610.09;;;25.20;59.62
46690;BME280;32423;45.398;10.874;2023-07-29T06:35:47;100612.09;;;25.19;59.66
46690;BME280;32423;45.398;10.874;2023-07-29T06:38:39;100613.97;;;25.26;58.78
46690;BME280;32423;45.398;10.874;2023-07-29T06:41:33;100616.81;;;25.22;58.17
46690;BME280;32423;45.398;10.874;2023-07-29T06:44:28;100617.88;;;25.32;58.54
46690;BME280;32423;45.398;10.874;2023-07-29T06:47:20;100614.22;;;25.38;58.09
46690;BME280;32423;45.398;10.874;2023-07-29T06:50:12;100611.78;;;25.40;58.13
46690;BME280;32423;45.398;10.874;2023-07-29T06:53:04;100619.75;;;25.42;58.09
46690;BME280;32423;45.398;10.874;2023-07-29T06:55:56;100610.25;;;25.39;58.52
46690;BME280;32423;45.398;10.874;2023-07-29T06:58:46;100623.72;;;25.41;58.93
46690;BME280;32423;45.398;10.874;2023-07-29T07:01:40;100626.09;;;25.42;59.01
46690;BME280;32423;45.398;10.874;2023-07-29T07:04:32;100627.69;;;25.43;59.07
46690;BME280;32423;45.398;10.874;2023-07-29T07:07:27;100627.03;;;25.32;59.53
46690;BME280;32423;45.398;10.874;2023-07-29T07:10:22;100624.16;;;25.39;59.50
46690;BME280;32423;45.398;10.874;2023-07-29T07:13:16;100621.16;;;25.57;58.58
46690;BME280;32423;45.398;10.874;2023-07-29T07:16:06;100616.81;;;25.52;58.46
46690;BME280;32423;45.398;10.874;2023-07-29T07:19:00;100617.41;;;25.67;58.63
46690;BME280;32423;45.398;10.874;2023-07-29T07:21:56;100612.78;;;25.84;58.13
46690;BME280;32423;45.398;10.874;2023-07-29T07:24:50;100611.28;;;25.79;57.66
46690;BME280;32423;45.398;10.874;2023-07-29T07:27:43;100614.41;;;25.81;58.01
46690;BME280;32423;45.398;10.874;2023-07-29T07:30:38;100609.47;;;25.66;57.47
46690;BME280;32423;45.398;10.874;2023-07-29T07:33:33;100613.50;;;25.65;58.56
46690;BME280;32423;45.398;10.874;2023-07-29T07:36:27;100609.47;;;25.66;59.05
46690;BME280;32423;45.398;10.874;2023-07-29T07:39:22;100600.78;;;25.64;59.11
46690;BME280;32423;45.398;10.874;2023-07-29T07:42:16;100598.78;;;25.64;58.71
46690;BME280;32423;45.398;10.874;2023-07-29T07:45:11;100603.50;;;25.67;58.55
46690;BME280;32423;45.398;10.874;2023-07-29T07:48:06;100598.72;;;25.68;58.61
46690;BME280;32423;45.398;10.874;2023-07-29T07:50:59;100600.56;;;26.01;58.54
46690;BME280;32423;45.398;10.874;2023-07-29T07:53:49;100608.63;;;26.85;55.89
46690;BME280;32423;45.398;10.874;2023-07-29T07:56:38;100606.47;;;26.96;55.33
46690;BME280;32423;45.398;10.874;2023-07-29T07:59:33;100614.28;;;28.09;51.71
46690;BME280;32423;45.398;10.874;2023-07-29T08:02:28;100613.91;;;28.72;49.79
46690;BME280;32423;45.398;10.874;2023-07-29T08:05:20;100621.09;;;30.53;44.71
46690;BME280;32423;45.398;10.874;2023-07-29T08:08:14;100620.78;;;34.21;37.42
46690;BME280;32423;45.398;10.874;2023-07-29T08:11:06;100626.78;;;35.93;31.48
46690;BME280;32423;45.398;10.874;2023-07-29T08:14:00;100631.19;;;36.29;30.36
46690;BME280;32423;45.398;10.874;2023-07-29T08:16:55;100619.88;;;39.14;27.02
46690;BME280;32423;45.398;10.874;2023-07-29T08:19:50;100623.94;;;40.13;25.15
46690;BME280;32423;45.398;10.874;2023-07-29T08:22:39;100612.31;;;35.56;32.34
46690;BME280;32423;45.398;10.874;2023-07-29T08:25:34;100610.16;;;37.34;29.32
46690;BME280;32423;45.398;10.874;2023-07-29T08:28:24;100608.81;;;36.31;30.69
46690;BME280;32423;45.398;10.874;2023-07-29T08:31:17;100605.66;;;36.09;31.19
46690;BME280;32423;45.398;10.874;2023-07-29T08:34:11;100611.75;;;33.15;36.25
46690;BME280;32423;45.398;10.874;2023-07-29T08:37:06;100603.50;;;30.75;41.61
46690;BME280;32423;45.398;10.874;2023-07-29T08:40:00;100595.63;;;29.75;43.98
46690;BME280;32423;45.398;10.874;2023-07-29T08:42:57;100587.72;;;29.20;45.50
46690;BME280;32423;45.398;10.874;2023-07-29T08:45:53;100590.69;;;28.71;47.08
46690;BME280;32423;45.398;10.874;2023-07-29T08:48:45;100595.31;;;28.49;47.58
46690;BME280;32423;45.398;10.874;2023-07-29T08:51:40;100586.28;;;28.29;48.20
46690;BME280;32423;45.398;10.874;2023-07-29T08:54:31;100585.28;;;28.19;48.61
46690;BME280;32423;45.398;10.874;2023-07-29T08:57:23;100595.47;;;28.13;48.94
46690;BME280;32423;45.398;10.874;2023-07-29T09:00:16;100586.78;;;27.91;49.48
46690;BME280;32423;45.398;10.874;2023-07-29T09:03:11;100592.53;;;27.84;49.70
46690;BME280;32423;45.398;10.874;2023-07-29T09:06:04;100594.31;;;27.78;49.60
46690;BME280;32423;45.398;10.874;2023-07-29T09:08:56;100595.94;;;27.76;50.63
46690;BME280;32423;45.398;10.874;2023-07-29T09:11:50;100595.31;;;27.84;50.06
46690;BME280;32423;45.398;10.874;2023-07-29T09:14:42;100589.41;;;27.82;49.85
46690;BME280;32423;45.398;10.874;2023-07-29T09:17:34;100591.75;;;27.68;50.26
46690;BME280;32423;45.398;10.874;2023-07-29T09:20:31;100586.72;;;27.43;51.24
46690;BME280;32423;45.398;10.874;2023-07-29T09:23:25;100589.00;;;27.48;51.23
46690;BME280;32423;45.398;10.874;2023-07-29T09:26:23;100584.25;;;27.45;51.14
46690;BME280;32423;45.398;10.874;2023-07-29T09:29:20;100581.78;;;27.50;50.97
46690;BME280;32423;45.398;10.874;2023-07-29T09:32:23;100580.47;;;27.55;51.16
46690;BME280;32423;45.398;10.874;2023-07-29T09:35:18;100587.63;;;27.56;51.04
46690;BME280;32423;45.398;10.874;2023-07-29T09:38:13;100583.53;;;27.60;51.27
46690;BME280;32423;45.398;10.874;2023-07-29T09:41:06;100588.59;;;27.65;51.09
46690;BME280;32423;45.398;10.874;2023-07-29T09:43:59;100589.31;;;27.86;50.15
46690;BME280;32423;45.398;10.874;2023-07-29T09:46:52;100577.69;;;27.87;50.30
46690;BME280;32423;45.398;10.874;2023-07-29T09:49:45;100583.03;;;27.82;50.42
46690;BME280;32423;45.398;10.874;2023-07-29T09:52:37;100571.22;;;27.90;50.54
46690;BME280;32423;45.398;10.874;2023-07-29T09:55:29;100572.38;;;27.77;50.53
46690;BME280;32423;45.398;10.874;2023-07-29T09:58:32;100570.00;;;27.75;50.77
46690;BME280;32423;45.398;10.874;2023-07-29T10:01:27;100570.50;;;27.54;51.45
46690;BME280;32423;45.398;10.874;2023-07-29T10:04:22;100570.44;;;27.57;51.78
46690;BME280;32423;45.398;10.874;2023-07-29T10:07:12;100571.41;;;27.67;50.77
46690;BME280;32423;45.398;10.874;2023-07-29T10:10:07;100564.22;;;27.50;51.40
46690;BME280;32423;45.398;10.874;2023-07-29T10:13:00;100560.06;;;27.58;51.70
46690;BME280;32423;45.398;10.874;2023-07-29T10:15:54;100550.88;;;27.90;51.77
46690;BME280;32423;45.398;10.874;2023-07-29T10:18:48;100554.97;;;28.01;50.70
46690;BME280;32423;45.398;10.874;2023-07-29T10:21:46;100549.38;;;28.01;50.17
46690;BME280;32423;45.398;10.874;2023-07-29T10:24:44;100552.72;;;27.96;50.28
46690;BME280;32423;45.398;10.874;2023-07-29T10:27:44;100546.94;;;27.71;51.58
46690;BME280;32423;45.398;10.874;2023-07-29T10:30:40;100550.28;;;27.66;51.78
46690;BME280;32423;45.398;10.874;2023-07-29T10:33:36;100544.00;;;27.78;51.86
46690;BME280;32423;45.398;10.874;2023-07-29T10:36:32;100556.28;;;27.81;51.25
46690;BME280;32423;45.398;10.874;2023-07-29T10:39:24;100552.81;;;27.77;51.51
46690;BME280;32423;45.398;10.874;2023-07-29T10:42:18;100551.75;;;28.03;50.96
46690;BME280;32423;45.398;10.874;2023-07-29T10:45:20;100543.69;;;28.05;50.52
46690;BME280;32423;45.398;10.874;2023-07-29T10:51:31;100540.47;;;28.06;52.06
46690;BME280;32423;45.398;10.874;2023-07-29T10:54:25;100532.78;;;28.27;51.19
46690;BME280;32423;45.398;10.874;2023-07-29T10:57:19;100538.50;;;28.36;52.24
46690;BME280;32423;45.398;10.874;2023-07-29T11:00:22;100538.06;;;28.37;51.41
46690;BME280;32423;45.398;10.874;2023-07-29T11:03:24;100535.38;;;28.63;50.89
46690;BME280;32423;45.398;10.874;2023-07-29T11:06:20;100544.09;;;28.36;51.29
46690;BME280;32423;45.398;10.874;2023-07-29T11:12:51;100549.16;;;28.12;52.25
46690;BME280;32423;45.398;10.874;2023-07-29T11:15:48;100547.03;;;28.00;52.40
46690;BME280;32423;45.398;10.874;2023-07-29T11:18:46;100530.97;;;27.88;52.78
46690;BME280;32423;45.398;10.874;2023-07-29T11:21:38;100529.91;;;27.82;53.35
46690;BME280;32423;45.398;10.874;2023-07-29T11:24:30;100529.72;;;27.89;53.08
46690;BME280;32423;45.398;10.874;2023-07-29T11:27:25;100520.63;;;28.01;52.36
46690;BME280;32423;45.398;10.874;2023-07-29T11:30:17;100524.91;;;28.05;52.12
46690;BME280;32423;45.398;10.874;2023-07-29T11:33:09;100519.00;;;27.87;52.80
46690;BME280;32423;45.398;10.874;2023-07-29T11:36:06;100511.16;;;27.82;52.80
46690;BME280;32423;45.398;10.874;2023-07-29T11:39:08;100508.78;;;27.97;52.51
46690;BME280;32423;45.398;10.874;2023-07-29T11:41:58;100510.97;;;28.34;51.75
46690;BME280;32423;45.398;10.874;2023-07-29T11:44:52;100500.81;;;28.12;52.18
46690;BME280;32423;45.398;10.874;2023-07-29T11:47:46;100502.66;;;28.18;51.75
46690;BME280;32423;45.398;10.874;2023-07-29T11:50:39;100500.09;;;28.07;51.98
46690;BME280;32423;45.398;10.874;2023-07-29T11:53:32;100494.44;;;28.40;50.21
46690;BME280;32423;45.398;10.874;2023-07-29T11:56:26;100490.94;;;28.36;50.72
46690;BME280;32423;45.398;10.874;2023-07-29T11:59:22;100496.00;;;28.12;51.39
46690;BME280;32423;45.398;10.874;2023-07-29T12:02:19;100503.63;;;28.12;51.29
46690;BME280;32423;45.398;10.874;2023-07-29T12:05:08;100494.69;;;28.00;51.93
46690;BME280;32423;45.398;10.874;2023-07-29T12:08:03;100496.63;;;27.87;52.28
46690;BME280;32423;45.398;10.874;2023-07-29T12:10:58;100496.28;;;27.85;52.39
46690;BME280;32423;45.398;10.874;2023-07-29T12:13:55;100491.59;;;27.82;52.56
46690;BME280;32423;45.398;10.874;2023-07-29T12:16:50;100489.66;;;27.79;52.21
46690;BME280;32423;45.398;10.874;2023-07-29T12:19:44;100492.97;;;27.90;51.71
46690;BME280;32423;45.398;10.874;2023-07-29T12:22:38;100492.28;;;27.86;51.88
46690;BME280;32423;45.398;10.874;2023-07-29T12:25:30;100487.91;;;27.85;51.86
46690;BME280;32423;45.398;10.874;2023-07-29T12:28:24;100480.75;;;28.29;50.32
46690;BME280;32423;45.398;10.874;2023-07-29T12:31:16;100478.69;;;28.17;50.61
46690;BME280;32423;45.398;10.874;2023-07-29T12:34:16;100476.16;;;28.23;50.68
46690;BME280;32423;45.398;10.874;2023-07-29T12:37:09;100473.91;;;28.30;50.44
46690;BME280;32423;45.398;10.874;2023-07-29T12:40:04;100475.72;;;28.08;51.05
46690;BME280;32423;45.398;10.874;2023-07-29T12:42:56;100475.53;;;28.15;51.28
46690;BME280;32423;45.398;10.874;2023-07-29T12:45:51;100481.59;;;28.14;51.13
46690;BME280;32423;45.398;10.874;2023-07-29T12:48:43;100471.78;;;28.05;51.27
46690;BME280;32423;45.398;10.874;2023-07-29T12:51:37;100469.53;;;28.00;51.59
46690;BME280;32423;45.398;10.874;2023-07-29T12:54:28;100459.81;;;28.05;51.43
46690;BME280;32423;45.398;10.874;2023-07-29T12:57:22;100459.13;;;28.01;51.47
46690;BME280;32423;45.398;10.874;2023-07-29T13:00:15;100446.59;;;28.22;52.21
46690;BME280;32423;45.398;10.874;2023-07-29T13:03:09;100437.44;;;28.05;51.16
46690;BME280;32423;45.398;10.874;2023-07-29T13:06:02;100430.00;;;28.15;50.65
46690;BME280;32423;45.398;10.874;2023-07-29T13:08:56;100434.63;;;27.92;51.64
46690;BME280;32423;45.398;10.874;2023-07-29T13:11:46;100433.03;;;27.91;51.62
46690;BME280;32423;45.398;10.874;2023-07-29T13:14:40;100432.81;;;28.15;50.53
46690;BME280;32423;45.398;10.874;2023-07-29T13:17:34;100431.41;;;28.06;51.21
46690;BME280;32423;45.398;10.874;2023-07-29T13:20:26;100430.63;;;28.22;50.01
46690;BME280;32423;45.398;10.874;2023-07-29T13:23:18;100428.34;;;28.17;49.96
46690;BME280;32423;45.398;10.874;2023-07-29T13:26:13;100421.09;;;28.20;50.27
46690;BME280;32423;45.398;10.874;2023-07-29T13:29:05;100422.78;;;28.01;50.73
46690;BME280;32423;45.398;10.874;2023-07-29T13:31:57;100423.44;;;27.92;51.26
46690;BME280;32423;45.398;10.874;2023-07-29T13:34:52;100421.66;;;27.98;50.99
46690;BME280;32423;45.398;10.874;2023-07-29T13:37:47;100417.78;;;27.80;51.82
46690;BME280;32423;45.398;10.874;2023-07-29T13:40:41;100419.16;;;27.88;51.43
46690;BME280;32423;45.398;10.874;2023-07-29T13:43:36;100421.16;;;27.87;51.64
46690;BME280;32423;45.398;10.874;2023-07-29T13:46:25;100422.94;;;27.81;51.80
46690;BME280;32423;45.398;10.874;2023-07-29T13:49:17;100431.94;;;27.73;52.62
46690;BME280;32423;45.398;10.874;2023-07-29T13:52:12;100427.38;;;27.79;52.13
46690;BME280;32423;45.398;10.874;2023-07-29T13:55:02;100421.41;;;27.93;52.13
46690;BME280;32423;45.398;10.874;2023-07-29T13:57:49;100417.44;;;28.06;51.89
46690;BME280;32423;45.398;10.874;2023-07-29T14:00:42;100417.53;;;28.03;51.16
46690;BME280;32423;45.398;10.874;2023-07-29T14:03:36;100407.81;;;28.24;51.10
46690;BME280;32423;45.398;10.874;2023-07-29T14:06:28;100406.22;;;28.23;50.48
46690;BME280;32423;45.398;10.874;2023-07-29T14:09:21;100401.44;;;28.23;50.45
46690;BME280;32423;45.398;10.874;2023-07-29T14:12:13;100410.13;;;28.25;50.05
46690;BME280;32423;45.398;10.874;2023-07-29T14:15:04;100402.53;;;28.26;50.48
46690;BME280;32423;45.398;10.874;2023-07-29T14:17:56;100396.72;;;28.04;50.71
46690;BME280;32423;45.398;10.874;2023-07-29T14:20:48;100394.41;;;28.02;51.26
46690;BME280;32423;45.398;10.874;2023-07-29T14:23:38;100385.44;;;28.24;50.21
46690;BME280;32423;45.398;10.874;2023-07-29T14:26:30;100388.38;;;28.58;49.06
46690;BME280;32423;45.398;10.874;2023-07-29T14:29:23;100393.63;;;28.43;49.88
46690;BME280;32423;45.398;10.874;2023-07-29T14:32:17;100379.19;;;28.03;50.81
46690;BME280;32423;45.398;10.874;2023-07-29T14:35:09;100371.78;;;27.97;51.12
46690;BME280;32423;45.398;10.874;2023-07-29T14:38:01;100371.66;;;28.00;50.99
46690;BME280;32423;45.398;10.874;2023-07-29T14:40:53;100365.16;;;28.20;50.45
46690;BME280;32423;45.398;10.874;2023-07-29T14:43:45;100360.47;;;28.17;50.42
46690;BME280;32423;45.398;10.874;2023-07-29T14:46:37;100368.19;;;28.25;50.47
46690;BME280;32423;45.398;10.874;2023-07-29T14:49:32;100360.53;;;28.55;48.81
46690;BME280;32423;45.398;10.874;2023-07-29T14:52:26;100369.69;;;28.68;49.04
46690;BME280;32423;45.398;10.874;2023-07-29T14:55:21;100363.53;;;28.60;49.47
46690;BME280;32423;45.398;10.874;2023-07-29T14:58:13;100361.16;;;28.46;49.43
46690;BME280;32423;45.398;10.874;2023-07-29T15:01:08;100366.72;;;28.21;49.79
46690;BME280;32423;45.398;10.874;2023-07-29T15:04:00;100361.53;;;28.06;50.54
46690;BME280;32423;45.398;10.874;2023-07-29T15:06:53;100362.97;;;28.11;50.88
46690;BME280;32423;45.398;10.874;2023-07-29T15:09:47;100357.09;;;28.22;50.49